createdAt,value
2022-10-02T00:02:18.822Z,15.10
2022-10-02T00:04:54.099Z,15.10
2022-10-02T00:07:27.612Z,15.10
2022-10-02T00:09:59.605Z,15.10
2022-10-02T00:12:32.119Z,15.20
2022-10-02T00:15:07.570Z,15.20
2022-10-02T00:17:40.540Z,15.20
2022-10-02T00:20:14.652Z,15.20
2022-10-02T00:22:51.928Z,15.20
2022-10-02T00:25:27.666Z,15.20
2022-10-02T00:28:13.948Z,15.20
2022-10-02T00:31:01.779Z,15.20
2022-10-02T00:33:39.753Z,15.20
2022-10-02T00:36:21.996Z,15.20
2022-10-02T00:38:59.876Z,15.20
2022-10-02T00:41:52.283Z,15.10
2022-10-02T00:44:35.893Z,15.20
2022-10-02T00:47:14.056Z,15.20
2022-10-02T00:49:58.744Z,15.20
2022-10-02T00:52:41.792Z,15.10
2022-10-02T00:55:37.406Z,15.20
2022-10-02T00:58:21.991Z,15.10
2022-10-02T01:01:03.593Z,15.20
2022-10-02T01:03:38.720Z,15.20
2022-10-02T01:06:07.676Z,15.20
2022-10-02T01:08:37.726Z,15.20
2022-10-02T01:11:08.583Z,15.20
2022-10-02T01:13:36.966Z,15.20
2022-10-02T01:16:11.856Z,15.20
2022-10-02T01:18:40.141Z,15.20
2022-10-02T01:21:17.427Z,15.20
2022-10-02T01:23:52.287Z,15.10
2022-10-02T01:26:21.944Z,15.20
2022-10-02T01:28:50.674Z,15.20
2022-10-02T01:31:19.258Z,15.10
2022-10-02T01:33:49.980Z,15.20
2022-10-02T01:36:18.505Z,15.20
2022-10-02T01:38:49.072Z,15.20
2022-10-02T01:41:17.172Z,15.20
2022-10-02T01:43:49.582Z,15.20
2022-10-02T01:46:35.365Z,15.20
2022-10-02T01:49:54.021Z,15.20
2022-10-02T01:52:38.495Z,15.20
2022-10-02T01:55:23.696Z,15.10
2022-10-02T01:58:01.163Z,15.10
2022-10-02T02:00:40.037Z,15.10
2022-10-02T02:03:17.547Z,15.10
2022-10-02T02:05:51.476Z,15.10
2022-10-02T02:08:29.925Z,15.10
2022-10-02T02:11:06.263Z,15.10
2022-10-02T02:13:42.455Z,15.10
2022-10-02T02:16:20.688Z,15.10
2022-10-02T02:18:55.190Z,15.10
2022-10-02T02:21:28.952Z,15.10
2022-10-02T02:23:59.727Z,15.10
2022-10-02T02:26:30.070Z,15.20
2022-10-02T02:29:03.361Z,15.10
2022-10-02T02:31:38.706Z,15.10
2022-10-02T02:34:11.286Z,15.10
2022-10-02T02:36:44.327Z,15.10
2022-10-02T02:39:17.845Z,15.00
2022-10-02T02:41:49.566Z,15.00
2022-10-02T02:44:24.160Z,15.00
2022-10-02T02:47:06.845Z,15.00
2022-10-02T02:49:44.157Z,14.90
2022-10-02T02:52:16.690Z,14.90
2022-10-02T02:54:48.957Z,14.80
2022-10-02T02:57:23.017Z,14.80
2022-10-02T02:59:53.706Z,14.80
2022-10-02T03:02:23.425Z,14.80
2022-10-02T03:04:51.494Z,14.80
2022-10-02T03:07:19.741Z,14.80
2022-10-02T03:09:56.361Z,14.70
2022-10-02T03:12:36.801Z,14.70
2022-10-02T03:15:26.607Z,14.70
2022-10-02T03:18:14.053Z,14.70
2022-10-02T03:20:46.504Z,14.70
2022-10-02T03:23:24.388Z,14.60
2022-10-02T03:26:00.108Z,14.60
2022-10-02T03:28:54.401Z,14.60
2022-10-02T03:31:22.956Z,14.60
2022-10-02T03:33:53.805Z,14.50
2022-10-02T03:36:25.026Z,14.50
2022-10-02T03:39:19.798Z,14.50
2022-10-02T03:41:43.905Z,14.50
2022-10-02T03:44:11.944Z,14.50
2022-10-02T03:46:40.289Z,14.50
2022-10-02T03:49:10.013Z,14.50
2022-10-02T03:51:38.110Z,14.50
2022-10-02T03:54:14.185Z,14.50
2022-10-02T03:56:47.863Z,14.50
2022-10-02T03:59:31.439Z,14.50
2022-10-02T04:02:03.697Z,14.50
2022-10-02T04:04:41.669Z,14.50
2022-10-02T04:07:17.535Z,14.50
2022-10-02T04:09:50.723Z,14.50
2022-10-02T04:12:23.895Z,14.50
2022-10-02T04:14:57.205Z,14.40
2022-10-02T04:17:30.010Z,14.40
2022-10-02T04:20:03.725Z,14.40
2022-10-02T04:22:38.063Z,14.50
2022-10-02T04:25:11.541Z,14.50
2022-10-02T04:27:43.362Z,14.40
2022-10-02T04:30:15.332Z,14.40
2022-10-02T04:32:43.487Z,14.40
2022-10-02T04:35:17.825Z,14.40
2022-10-02T04:38:21.559Z,14.40
2022-10-02T04:41:07.420Z,14.40
2022-10-02T04:43:47.892Z,14.40
2022-10-02T04:46:37.139Z,14.40
2022-10-02T04:49:27.383Z,14.40
2022-10-02T04:52:18.073Z,14.40
2022-10-02T04:55:03.505Z,14.40
2022-10-02T04:57:56.274Z,14.40
2022-10-02T05:00:26.861Z,14.40
2022-10-02T05:03:20.636Z,14.40
2022-10-02T05:06:07.617Z,14.40
2022-10-02T05:09:08.216Z,14.40
2022-10-02T05:12:02.920Z,14.40
2022-10-02T05:14:55.257Z,14.30
2022-10-02T05:17:38.527Z,14.30
2022-10-02T05:20:25.008Z,14.40
2022-10-02T05:23:06.381Z,14.40
2022-10-02T05:25:55.984Z,14.30
2022-10-02T05:28:43.056Z,14.30
2022-10-02T05:31:22.227Z,14.30
2022-10-02T05:34:10.949Z,14.20
2022-10-02T05:37:09.417Z,14.20
2022-10-02T05:39:45.689Z,14.20
2022-10-02T05:42:24.543Z,14.20
2022-10-02T05:44:57.421Z,14.20
2022-10-02T05:47:31.215Z,14.20
2022-10-02T05:50:04.230Z,14.30
2022-10-02T05:52:38.368Z,14.20
2022-10-02T05:55:17.907Z,14.30
2022-10-02T05:57:52.307Z,14.30
2022-10-02T06:00:31.299Z,14.30
2022-10-02T06:03:11.296Z,14.30
2022-10-02T06:05:48.288Z,14.30
2022-10-02T06:08:21.364Z,14.30
2022-10-02T06:10:53.502Z,14.30
2022-10-02T06:13:26.435Z,14.30
2022-10-02T06:16:10.860Z,14.20
2022-10-02T06:18:42.838Z,14.20
2022-10-02T06:21:24.622Z,14.20
2022-10-02T06:23:57.642Z,14.10
2022-10-02T06:26:30.167Z,14.00
2022-10-02T06:29:03.197Z,14.00
2022-10-02T06:31:39.317Z,14.00
2022-10-02T06:34:11.723Z,14.00
2022-10-02T06:37:00.205Z,14.00
2022-10-02T06:39:40.079Z,14.00
2022-10-02T06:42:18.827Z,14.00
2022-10-02T06:44:58.614Z,14.00
2022-10-02T06:47:40.549Z,14.00
2022-10-02T06:50:24.343Z,14.00
2022-10-02T06:52:59.424Z,14.10
2022-10-02T06:55:45.097Z,14.00
2022-10-02T06:58:43.240Z,14.00
2022-10-02T07:01:22.890Z,14.00
2022-10-02T07:04:17.460Z,14.00
2022-10-02T07:06:58.926Z,13.90
2022-10-02T07:10:02.101Z,14.00
2022-10-02T07:12:54.092Z,14.00
2022-10-02T07:15:48.557Z,14.00
2022-10-02T07:18:33.993Z,14.00
2022-10-02T07:21:10.869Z,14.10
2022-10-02T07:23:47.573Z,14.10
2022-10-02T07:26:38.992Z,14.10
2022-10-02T07:29:17.903Z,14.10
2022-10-02T07:31:58.335Z,14.10
2022-10-02T07:34:41.845Z,14.10
2022-10-02T07:37:18.803Z,14.10
2022-10-02T07:40:06.548Z,14.00
2022-10-02T07:42:55.697Z,14.00
2022-10-02T07:45:34.957Z,14.00
2022-10-02T07:48:36.111Z,14.00
2022-10-02T07:51:36.172Z,14.00
2022-10-02T07:54:18.159Z,14.00
2022-10-02T07:56:49.057Z,14.00
2022-10-02T07:59:18.841Z,14.00
2022-10-02T08:01:48.872Z,14.00
2022-10-02T08:04:20.115Z,13.90
2022-10-02T08:06:52.499Z,13.90
2022-10-02T08:09:25.525Z,13.90
2022-10-02T08:11:57.985Z,13.90
2022-10-02T08:14:32.911Z,14.00
2022-10-02T08:17:12.118Z,14.00
2022-10-02T08:19:44.251Z,14.00
2022-10-02T08:22:19.003Z,14.10
2022-10-02T08:24:50.309Z,14.00
2022-10-02T08:27:23.776Z,14.00
2022-10-02T08:29:57.064Z,14.00
2022-10-02T08:32:34.520Z,14.10
2022-10-02T08:35:06.571Z,14.20
2022-10-02T08:37:46.169Z,14.20
2022-10-02T08:40:57.562Z,14.30
2022-10-02T08:43:49.074Z,14.30
2022-10-02T08:46:59.438Z,14.30
2022-10-02T08:49:48.446Z,14.30
2022-10-02T08:53:05.538Z,14.30
2022-10-02T08:55:50.695Z,14.30
2022-10-02T08:58:59.289Z,14.30
2022-10-02T09:01:50.419Z,14.40
2022-10-02T09:05:01.288Z,14.40
2022-10-02T09:08:08.968Z,14.40
2022-10-02T09:11:05.173Z,14.50
2022-10-02T09:14:11.185Z,14.50
2022-10-02T09:17:12.727Z,14.50
2022-10-02T09:19:49.787Z,14.60
2022-10-02T09:22:50.598Z,14.50
2022-10-02T09:25:37.335Z,14.60
2022-10-02T09:28:49.823Z,14.60
2022-10-02T09:31:47.554Z,14.60
2022-10-02T09:34:53.644Z,14.70
2022-10-02T09:37:53.393Z,14.70
2022-10-02T09:40:55.119Z,14.80
2022-10-02T09:44:03.557Z,14.90
2022-10-02T09:47:01.469Z,14.90
2022-10-02T09:49:53.071Z,15.00
2022-10-02T09:53:01.679Z,15.10
2022-10-02T09:55:57.981Z,15.20
2022-10-02T09:59:09.857Z,15.30
2022-10-02T10:02:14.256Z,15.20
2022-10-02T10:05:11.374Z,15.20
2022-10-02T10:08:15.559Z,15.20
2022-10-02T10:11:21.615Z,15.30
2022-10-02T10:14:24.938Z,15.30
2022-10-02T10:17:23.408Z,15.20
2022-10-02T10:20:36.795Z,15.20
2022-10-02T10:23:51.409Z,15.10
2022-10-02T10:26:53.393Z,15.10
2022-10-02T10:29:51.347Z,15.10
2022-10-02T10:33:05.024Z,15.00
2022-10-02T10:36:01.612Z,15.00
2022-10-02T10:38:52.335Z,15.00
2022-10-02T10:41:51.498Z,15.00
2022-10-02T10:44:46.739Z,14.90
2022-10-02T10:47:33.437Z,14.90
2022-10-02T10:50:25.228Z,15.00
2022-10-02T10:53:30.193Z,15.00
2022-10-02T10:56:19.433Z,14.90
2022-10-02T10:59:25.645Z,14.90
2022-10-02T11:02:13.920Z,14.90
2022-10-02T11:05:04.599Z,14.80
2022-10-02T11:07:54.868Z,14.80
2022-10-02T11:10:36.051Z,14.80
2022-10-02T11:13:33.175Z,14.80
2022-10-02T11:16:44.495Z,14.90
2022-10-02T11:19:41.234Z,15.00
2022-10-02T11:22:24.989Z,15.00
2022-10-02T11:25:22.025Z,15.10
2022-10-02T11:28:25.168Z,15.10
2022-10-02T11:31:05.394Z,15.20
2022-10-02T11:34:13.310Z,15.30
2022-10-02T11:37:05.697Z,15.30
2022-10-02T11:39:57.276Z,15.40
2022-10-02T11:42:48.426Z,15.30
2022-10-02T11:45:37.193Z,15.40
2022-10-02T11:48:24.104Z,15.40
2022-10-02T11:51:17.691Z,15.40
2022-10-02T11:54:05.959Z,15.40
2022-10-02T11:57:01.729Z,15.40
2022-10-02T12:00:05.788Z,15.40
2022-10-02T12:02:39.908Z,15.50
2022-10-02T12:05:27.637Z,15.50
2022-10-02T12:08:04.946Z,15.70
2022-10-02T12:10:44.871Z,15.80
2022-10-02T12:13:35.077Z,15.90
2022-10-02T12:16:11.477Z,16.00
2022-10-02T12:18:51.050Z,16.00
2022-10-02T12:21:48.500Z,16.00
2022-10-02T12:24:38.419Z,16.10
2022-10-02T12:27:15.755Z,16.30
2022-10-02T12:30:04.187Z,16.30
2022-10-02T12:32:54.703Z,16.30
2022-10-02T12:35:37.990Z,16.30
2022-10-02T12:38:19.707Z,16.30
2022-10-02T12:40:58.230Z,16.30
2022-10-02T12:44:03.196Z,16.30
2022-10-02T12:47:04.852Z,16.30
2022-10-02T12:49:47.613Z,16.30
2022-10-02T12:52:55.359Z,16.10
2022-10-02T12:56:01.468Z,16.20
2022-10-02T12:58:38.765Z,16.10
2022-10-02T13:01:41.706Z,16.10
2022-10-02T13:04:49.076Z,16.10
2022-10-02T13:08:01.761Z,16.20
2022-10-02T13:10:38.063Z,16.20
2022-10-02T13:13:36.194Z,16.30
2022-10-02T13:16:13.038Z,16.40
2022-10-02T13:18:57.141Z,16.40
2022-10-02T13:21:33.119Z,16.30
2022-10-02T13:24:15.985Z,16.30
2022-10-02T13:26:51.949Z,16.20
2022-10-02T13:29:34.564Z,16.10
2022-10-02T13:32:27.045Z,16.10
2022-10-02T13:35:16.084Z,16.10
2022-10-02T13:37:55.408Z,16.10
2022-10-02T13:40:31.133Z,16.10
2022-10-02T13:43:23.025Z,15.90
2022-10-02T13:46:01.747Z,15.90
2022-10-02T13:48:42.845Z,15.90
2022-10-02T13:51:20.468Z,15.90
2022-10-02T13:54:07.798Z,15.90
2022-10-02T13:56:51.305Z,15.90
2022-10-02T13:59:43.915Z,15.90
2022-10-02T14:02:34.454Z,16.00
2022-10-02T14:05:11.297Z,15.90
2022-10-02T14:07:57.881Z,16.00
2022-10-02T14:10:40.855Z,16.00
2022-10-02T14:13:27.012Z,15.90
2022-10-02T14:16:08.618Z,15.90
2022-10-02T14:18:51.558Z,15.80
2022-10-02T14:21:28.639Z,15.90
2022-10-02T14:24:48.306Z,15.90
2022-10-02T14:27:24.827Z,15.90
2022-10-02T14:30:01.238Z,15.90
2022-10-02T14:32:45.906Z,15.80
2022-10-02T14:35:43.786Z,15.80
2022-10-02T14:38:25.196Z,15.90
2022-10-02T14:40:56.416Z,15.90
2022-10-02T14:43:39.637Z,16.00
2022-10-02T14:46:22.340Z,16.00
2022-10-02T14:49:12.426Z,16.00
2022-10-02T14:52:02.306Z,15.90
2022-10-02T14:54:44.137Z,15.90
2022-10-02T14:57:45.135Z,15.90
2022-10-02T15:00:18.708Z,15.90
2022-10-02T15:03:27.529Z,16.00
2022-10-02T15:06:05.207Z,16.00
2022-10-02T15:08:38.735Z,16.10
2022-10-02T15:11:19.372Z,16.20
2022-10-02T15:13:57.758Z,16.20
2022-10-02T15:16:53.752Z,16.20
2022-10-02T15:19:28.173Z,16.20
2022-10-02T15:22:00.832Z,16.10
2022-10-02T15:24:32.601Z,16.00
2022-10-02T15:27:19.828Z,16.00
2022-10-02T15:30:13.288Z,16.10
2022-10-02T15:32:54.013Z,16.10
2022-10-02T15:35:32.267Z,16.10
2022-10-02T15:38:34.815Z,16.20
2022-10-02T15:41:33.393Z,16.10
2022-10-02T15:44:10.049Z,16.10
2022-10-02T15:46:50.382Z,16.10
2022-10-02T15:49:33.991Z,16.10
2022-10-02T15:52:10.202Z,16.00
2022-10-02T15:54:55.420Z,16.00
2022-10-02T15:57:41.258Z,15.90
2022-10-02T16:00:15.536Z,15.90
2022-10-02T16:03:02.758Z,15.90
2022-10-02T16:05:53.178Z,15.90
2022-10-02T16:08:57.185Z,16.00
2022-10-02T16:12:05.391Z,16.00
2022-10-02T16:14:42.932Z,16.00
2022-10-02T16:17:30.772Z,16.00
2022-10-02T16:20:31.527Z,16.00
2022-10-02T16:23:22.779Z,15.90
2022-10-02T16:26:02.967Z,15.90
2022-10-02T16:28:46.793Z,15.90
2022-10-02T16:31:35.338Z,15.80
2022-10-02T16:34:14.276Z,15.70
2022-10-02T16:36:52.199Z,15.70
2022-10-02T16:39:46.292Z,15.60
2022-10-02T16:42:22.092Z,15.60
2022-10-02T16:45:17.780Z,15.50
2022-10-02T16:47:50.418Z,15.50
2022-10-02T16:50:24.864Z,15.40
2022-10-02T16:53:02.363Z,15.30
2022-10-02T16:55:36.473Z,15.20
2022-10-02T16:58:14.167Z,15.10
2022-10-02T17:00:54.411Z,15.10
2022-10-02T17:03:31.531Z,15.10
2022-10-02T17:06:06.517Z,15.00
2022-10-02T17:08:42.386Z,15.00
2022-10-02T17:11:20.356Z,14.90
2022-10-02T17:14:06.476Z,14.90
2022-10-02T17:16:41.145Z,14.90
2022-10-02T17:19:22.334Z,14.80
2022-10-02T17:21:54.521Z,14.80
2022-10-02T17:24:48.649Z,14.70
2022-10-02T17:27:26.659Z,14.70
2022-10-02T17:30:03.742Z,14.60
2022-10-02T17:32:38.632Z,14.60
2022-10-02T17:35:17.225Z,14.60
2022-10-02T17:38:21.262Z,14.60
2022-10-02T17:40:59.703Z,14.60
2022-10-02T17:43:37.384Z,14.60
2022-10-02T17:46:29.201Z,14.50
2022-10-02T17:49:03.778Z,14.50
2022-10-02T17:51:58.752Z,14.40
2022-10-02T17:55:00.424Z,14.40
2022-10-02T17:57:47.393Z,14.40
2022-10-02T18:00:21.211Z,14.40
2022-10-02T18:03:18.172Z,14.40
2022-10-02T18:05:54.461Z,14.40
2022-10-02T18:08:47.394Z,14.30
2022-10-02T18:11:31.380Z,14.30
2022-10-02T18:14:11.782Z,14.30
2022-10-02T18:16:55.174Z,14.40
2022-10-02T18:19:32.957Z,14.30
2022-10-02T18:22:20.492Z,14.30
2022-10-02T18:25:25.162Z,14.30
2022-10-02T18:28:11.899Z,14.30
2022-10-02T18:30:50.219Z,14.30
2022-10-02T18:33:42.447Z,14.30
2022-10-02T18:36:23.648Z,14.30
2022-10-02T18:39:02.405Z,14.30
2022-10-02T18:41:53.763Z,14.30
2022-10-02T18:44:45.039Z,14.30
2022-10-02T18:47:27.481Z,14.30
2022-10-02T18:50:10.842Z,14.30
2022-10-02T18:52:57.218Z,14.30
2022-10-02T18:55:38.872Z,14.30
2022-10-02T18:58:21.500Z,14.30
2022-10-02T19:01:05.210Z,14.30
2022-10-02T19:03:44.351Z,14.30
2022-10-02T19:06:17.431Z,14.30
2022-10-02T19:09:04.763Z,14.40
2022-10-02T19:11:36.051Z,14.40
2022-10-02T19:14:15.002Z,14.40
2022-10-02T19:16:58.267Z,14.40
2022-10-02T19:19:29.191Z,14.40
2022-10-02T19:22:01.259Z,14.30
2022-10-02T19:24:32.732Z,14.40
2022-10-02T19:27:04.845Z,14.40
2022-10-02T19:29:37.570Z,14.30
2022-10-02T19:32:14.399Z,14.30
2022-10-02T19:34:44.918Z,14.30
2022-10-02T19:37:17.506Z,14.30
2022-10-02T19:39:52.128Z,14.30
2022-10-02T19:42:25.295Z,14.30
2022-10-02T19:44:57.731Z,14.30
2022-10-02T19:47:30.242Z,14.30
2022-10-02T19:50:02.380Z,14.30
2022-10-02T19:52:52.400Z,14.20
2022-10-02T19:55:27.313Z,14.20
2022-10-02T19:58:00.480Z,14.20
2022-10-02T20:00:30.014Z,14.20
2022-10-02T20:03:00.774Z,14.10
2022-10-02T20:05:35.142Z,14.10
2022-10-02T20:08:12.971Z,14.00
2022-10-02T20:10:47.428Z,14.00
2022-10-02T20:13:20.551Z,14.00
2022-10-02T20:16:12.434Z,13.90
2022-10-02T20:18:44.349Z,13.90
2022-10-02T20:21:16.945Z,13.90
2022-10-02T20:23:57.788Z,13.80
2022-10-02T20:26:33.004Z,13.80
2022-10-02T20:29:05.107Z,13.80
2022-10-02T20:31:45.433Z,13.70
2022-10-02T20:34:23.821Z,13.70
2022-10-02T20:37:04.979Z,13.60
2022-10-02T20:39:38.905Z,13.60
2022-10-02T20:42:15.031Z,13.60
2022-10-02T20:44:44.299Z,13.60
2022-10-02T20:47:57.655Z,13.60
2022-10-02T21:03:11.180Z,13.70
2022-10-02T21:06:15.499Z,13.70
2022-10-02T21:09:13.256Z,13.70
2022-10-02T21:11:54.436Z,13.70
2022-10-02T21:14:57.164Z,13.60
2022-10-02T21:18:00.811Z,13.60
2022-10-02T21:21:01.974Z,13.60
2022-10-02T21:24:01.637Z,13.50
2022-10-02T21:27:13.448Z,13.50
2022-10-02T21:30:03.043Z,13.40
2022-10-02T21:32:41.305Z,13.40
2022-10-02T21:35:16.988Z,13.30
2022-10-02T21:38:06.204Z,13.30
2022-10-02T21:41:07.345Z,13.20
2022-10-02T21:44:08.162Z,13.20
2022-10-02T21:47:01.269Z,13.10
2022-10-02T21:50:16.402Z,13.10
2022-10-02T21:53:16.838Z,13.10
2022-10-02T21:56:22.887Z,13.10
2022-10-02T21:59:12.872Z,13.10
2022-10-02T22:02:11.586Z,13.10
2022-10-02T22:05:07.058Z,13.00
2022-10-02T22:07:39.668Z,13.10
2022-10-02T22:10:17.640Z,13.10
2022-10-02T22:12:57.577Z,13.00
2022-10-02T22:15:37.690Z,13.00
2022-10-02T22:18:14.782Z,13.00
2022-10-02T22:21:09.924Z,12.90
2022-10-02T22:24:02.449Z,12.90
2022-10-02T22:26:45.578Z,12.80
2022-10-02T22:29:19.693Z,12.80
2022-10-02T22:32:17.602Z,12.80
2022-10-02T22:34:56.567Z,12.70
2022-10-02T22:37:41.815Z,12.70
2022-10-02T22:40:15.458Z,12.70
2022-10-02T22:42:49.913Z,12.70
2022-10-02T22:45:21.911Z,12.70
2022-10-02T22:48:00.076Z,12.60
2022-10-02T22:50:33.836Z,12.60
2022-10-02T22:53:12.711Z,12.60
2022-10-02T22:55:49.851Z,12.50
2022-10-02T22:58:24.700Z,12.50
2022-10-02T23:01:02.284Z,12.40
2022-10-02T23:03:37.914Z,12.40
2022-10-02T23:06:14.445Z,12.40
2022-10-02T23:08:50.027Z,12.40
2022-10-02T23:11:23.253Z,12.40
2022-10-02T23:13:57.954Z,12.30
2022-10-02T23:16:35.463Z,12.30
2022-10-02T23:19:10.429Z,12.30
2022-10-02T23:21:47.740Z,12.30
2022-10-02T23:24:23.544Z,12.20
2022-10-02T23:26:54.994Z,12.20
2022-10-02T23:29:35.856Z,12.20
2022-10-02T23:32:14.624Z,12.20
2022-10-02T23:34:51.637Z,12.10
2022-10-02T23:37:25.311Z,12.10
2022-10-02T23:40:04.154Z,12.10
2022-10-02T23:42:39.567Z,12.10
2022-10-02T23:45:20.458Z,12.10
2022-10-02T23:48:03.679Z,12.00
2022-10-02T23:50:44.458Z,12.00
2022-10-02T23:53:38.193Z,12.00
2022-10-02T23:56:28.479Z,12.00
2022-10-02T23:59:25.781Z,12.00
